createdAt,value
2023-04-16T00:00:38.769Z,3.80
2023-04-16T00:03:43.090Z,3.31
2023-04-16T00:06:46.988Z,3.29
2023-04-16T00:10:05.010Z,3.33
2023-04-16T00:13:09.188Z,3.25
2023-04-16T00:16:13.318Z,3.31
2023-04-16T00:19:18.419Z,3.49
2023-04-16T00:22:22.427Z,3.30
2023-04-16T00:25:26.374Z,3.61
2023-04-16T00:28:30.614Z,3.49
2023-04-16T00:31:34.849Z,3.67
2023-04-16T00:34:39.029Z,3.47
2023-04-16T00:37:42.718Z,3.86
2023-04-16T00:40:46.668Z,3.99
2023-04-16T00:43:50.828Z,4.22
2023-04-16T00:46:55.892Z,4.34
2023-04-16T00:49:59.942Z,3.96
2023-04-16T00:53:05.886Z,3.83
2023-04-16T00:56:09.911Z,3.91
2023-04-16T00:59:13.792Z,3.94
2023-04-16T01:02:17.828Z,4.34
2023-04-16T01:05:25.918Z,4.03
2023-04-16T01:08:30.034Z,4.24
2023-04-16T01:11:33.419Z,3.92
2023-04-16T01:14:37.138Z,4.47
2023-04-16T01:17:41.285Z,4.61
2023-04-16T01:20:45.444Z,4.45
2023-04-16T01:23:51.150Z,4.72
2023-04-16T01:26:55.294Z,4.52
2023-04-16T01:29:59.195Z,4.54
2023-04-16T01:33:03.538Z,4.54
2023-04-16T01:36:07.615Z,4.70
2023-04-16T01:39:11.614Z,5.16
2023-04-16T01:42:16.688Z,5.15
2023-04-16T01:45:22.268Z,5.29
2023-04-16T01:48:26.622Z,5.19
2023-04-16T01:51:32.121Z,5.33
2023-04-16T01:54:36.079Z,5.24
2023-04-16T01:57:40.325Z,5.00
2023-04-16T02:00:44.421Z,4.73
2023-04-16T02:03:49.110Z,5.17
2023-04-16T02:06:53.407Z,5.57
2023-04-16T02:09:57.222Z,5.47
2023-04-16T02:13:01.211Z,5.29
2023-04-16T02:16:05.948Z,7.42
2023-04-16T02:19:10.198Z,7.29
2023-04-16T02:22:14.984Z,7.36
2023-04-16T02:25:20.569Z,6.93
2023-04-16T02:28:26.326Z,6.79
2023-04-16T02:31:34.535Z,6.93
2023-04-16T02:34:38.640Z,6.62
2023-04-16T02:37:42.572Z,7.03
2023-04-16T02:40:46.705Z,7.12
2023-04-16T02:43:50.871Z,6.88
2023-04-16T02:46:54.812Z,6.44
2023-04-16T02:49:58.578Z,6.62
2023-04-16T02:53:02.623Z,6.80
2023-04-16T02:56:06.996Z,6.42
2023-04-16T02:59:11.411Z,6.55
2023-04-16T03:02:15.363Z,6.70
2023-04-16T03:05:19.207Z,6.62
2023-04-16T03:08:23.421Z,6.27
2023-04-16T03:11:30.353Z,6.44
2023-04-16T03:14:34.639Z,6.61
2023-04-16T03:17:43.351Z,6.35
2023-04-16T03:20:47.924Z,6.50
2023-04-16T03:23:51.735Z,6.32
2023-04-16T03:26:55.476Z,5.98
2023-04-16T03:30:00.810Z,6.07
2023-04-16T03:33:07.085Z,5.36
2023-04-16T03:36:11.015Z,5.16
2023-04-16T03:39:15.313Z,4.81
2023-04-16T03:42:19.005Z,4.95
2023-04-16T03:45:23.016Z,4.95
2023-04-16T03:48:27.205Z,4.78
2023-04-16T03:51:31.109Z,4.79
2023-04-16T03:54:35.224Z,4.70
2023-04-16T03:57:41.747Z,4.82
2023-04-16T04:00:46.895Z,4.98
2023-04-16T04:03:53.181Z,4.56
2023-04-16T04:06:59.739Z,4.83
2023-04-16T04:10:03.778Z,5.06
2023-04-16T04:13:07.911Z,4.74
2023-04-16T04:16:11.823Z,4.67
2023-04-16T04:19:15.503Z,4.70
2023-04-16T04:22:19.326Z,4.93
2023-04-16T04:25:23.489Z,4.94
2023-04-16T04:28:28.725Z,4.84
2023-04-16T04:31:32.913Z,5.01
2023-04-16T04:34:36.569Z,4.79
2023-04-16T04:37:40.728Z,4.96
2023-04-16T04:40:45.108Z,5.23
2023-04-16T04:43:48.834Z,5.24
2023-04-16T04:46:52.763Z,5.36
2023-04-16T04:49:56.644Z,5.36
2023-04-16T04:53:01.944Z,5.54
2023-04-16T04:56:12.199Z,6.33
2023-04-16T04:59:17.393Z,6.34
2023-04-16T05:02:21.845Z,6.20
2023-04-16T05:05:49.177Z,5.86
2023-04-16T05:08:53.156Z,6.28
2023-04-16T05:11:56.921Z,6.10
2023-04-16T05:15:00.807Z,6.41
2023-04-16T05:18:05.064Z,6.23
2023-04-16T05:21:12.356Z,6.68
2023-04-16T05:24:16.772Z,6.51
2023-04-16T05:27:20.898Z,6.92
2023-04-16T05:30:25.210Z,7.02
2023-04-16T05:33:29.103Z,7.17
2023-04-16T05:36:43.484Z,7.18
2023-04-16T05:39:47.477Z,7.16
2023-04-16T05:42:51.420Z,7.53
2023-04-16T05:45:55.439Z,7.24
2023-04-16T05:48:59.474Z,7.25
2023-04-16T05:52:03.476Z,7.75
2023-04-16T05:55:08.715Z,7.71
2023-04-16T05:58:12.816Z,8.19
2023-04-16T06:01:21.276Z,8.02
2023-04-16T06:04:25.453Z,8.30
2023-04-16T06:07:33.919Z,8.16
2023-04-16T06:10:38.258Z,8.39
2023-04-16T06:13:42.445Z,8.64
2023-04-16T06:16:46.094Z,8.70
2023-04-16T06:19:50.234Z,8.16
2023-04-16T06:22:55.640Z,8.27
2023-04-16T06:25:59.969Z,8.58
2023-04-16T06:29:04.087Z,8.79
2023-04-16T06:32:08.535Z,8.66
2023-04-16T06:35:13.279Z,8.80
2023-04-16T06:38:18.660Z,8.65
2023-04-16T06:41:23.765Z,8.58
2023-04-16T06:44:27.759Z,9.13
2023-04-16T06:47:40.902Z,9.19
2023-04-16T06:50:47.322Z,9.22
2023-04-16T06:53:51.255Z,8.71
2023-04-16T06:56:55.551Z,9.06
2023-04-16T07:00:00.523Z,9.31
2023-04-16T07:03:08.799Z,9.10
2023-04-16T07:06:12.622Z,9.41
2023-04-16T07:09:18.736Z,9.19
2023-04-16T07:12:23.042Z,9.69
2023-04-16T07:15:27.568Z,8.80
2023-04-16T07:18:31.417Z,8.69
2023-04-16T07:21:35.647Z,8.23
2023-04-16T07:24:39.428Z,8.41
2023-04-16T07:27:47.958Z,7.82
2023-04-16T07:30:52.028Z,7.84
2023-04-16T07:33:56.567Z,8.59
2023-04-16T07:37:00.666Z,8.87
2023-04-16T07:40:05.798Z,8.63
2023-04-16T07:43:09.968Z,8.61
2023-04-16T07:46:15.656Z,8.60
2023-04-16T07:49:19.792Z,8.71
2023-04-16T07:52:23.466Z,8.71
2023-04-16T07:55:27.365Z,9.48
2023-04-16T07:58:32.294Z,9.33
2023-04-16T08:01:36.269Z,8.65
2023-04-16T08:04:51.063Z,8.48
2023-04-16T08:07:55.270Z,8.49
2023-04-16T08:10:59.250Z,7.59
2023-04-16T08:14:03.168Z,7.00
2023-04-16T08:17:07.235Z,7.68
2023-04-16T08:20:15.043Z,8.44
2023-04-16T08:23:20.956Z,8.15
2023-04-16T08:26:25.832Z,7.45
2023-04-16T08:29:30.109Z,7.38
2023-04-16T08:32:34.736Z,7.44
2023-04-16T08:35:39.737Z,7.50
2023-04-16T08:38:43.886Z,7.71
2023-04-16T08:41:47.856Z,7.42
2023-04-16T08:44:51.917Z,6.51
2023-04-16T08:47:57.432Z,5.98
2023-04-16T08:51:03.798Z,5.56
2023-04-16T08:54:08.219Z,5.40
2023-04-16T08:57:12.039Z,5.24
2023-04-16T09:00:15.597Z,5.29
2023-04-16T09:03:20.038Z,5.42
2023-04-16T09:06:26.519Z,5.35
2023-04-16T09:09:31.575Z,5.66
2023-04-16T09:12:36.599Z,5.49
2023-04-16T09:15:40.854Z,5.44
2023-04-16T09:18:46.725Z,4.98
2023-04-16T09:21:50.668Z,4.91
2023-04-16T09:24:56.015Z,4.95
2023-04-16T09:28:01.577Z,5.02
2023-04-16T09:31:05.915Z,4.73
2023-04-16T09:34:09.522Z,4.71
2023-04-16T09:37:13.355Z,5.04
2023-04-16T09:40:18.294Z,4.78
2023-04-16T09:43:22.501Z,4.93
2023-04-16T09:46:26.717Z,4.98
2023-04-16T09:49:31.169Z,4.79
2023-04-16T09:52:37.037Z,5.30
2023-04-16T09:55:40.782Z,5.48
2023-04-16T09:58:47.592Z,5.37
2023-04-16T10:01:53.441Z,5.75
2023-04-16T10:05:20.519Z,5.54
2023-04-16T10:08:24.726Z,5.59
2023-04-16T10:11:30.724Z,5.62
2023-04-16T10:14:34.774Z,5.52
2023-04-16T10:17:38.579Z,5.99
2023-04-16T10:20:47.198Z,5.98
2023-04-16T10:23:51.312Z,5.97
2023-04-16T10:26:56.531Z,5.97
2023-04-16T10:30:00.873Z,5.79
2023-04-16T10:33:05.153Z,5.49
2023-04-16T10:36:09.442Z,5.32
2023-04-16T10:39:16.270Z,5.50
2023-04-16T10:42:20.890Z,5.78
2023-04-16T10:45:25.977Z,6.18
2023-04-16T10:48:38.568Z,6.16
2023-04-16T10:51:50.964Z,5.43
2023-04-16T10:54:54.958Z,5.88
2023-04-16T10:58:03.184Z,6.47
2023-04-16T11:01:07.352Z,5.93
2023-04-16T11:04:11.472Z,5.16
2023-04-16T11:07:15.849Z,4.47
2023-04-16T11:10:24.205Z,4.58
2023-04-16T11:13:29.539Z,5.54
2023-04-16T11:16:34.046Z,5.54
2023-04-16T11:19:38.415Z,5.59
2023-04-16T11:22:44.654Z,4.59
2023-04-16T11:25:51.506Z,4.66
2023-04-16T11:28:55.651Z,4.38
2023-04-16T11:31:59.843Z,3.67
2023-04-16T11:38:26.484Z,3.21
2023-04-16T11:41:33.589Z,3.33
2023-04-16T11:44:41.391Z,3.77
2023-04-16T11:47:52.374Z,4.36
2023-04-16T11:51:20.484Z,4.41
2023-04-16T11:54:27.119Z,3.50
2023-04-16T11:57:31.290Z,4.32
2023-04-16T12:00:36.113Z,4.50
2023-04-16T12:03:41.537Z,4.62
2023-04-16T12:06:50.793Z,4.10
2023-04-16T12:09:57.656Z,4.02
2023-04-16T12:13:03.229Z,4.12
2023-04-16T12:16:07.455Z,3.47
2023-04-16T12:19:11.455Z,3.26
2023-04-16T12:22:15.734Z,3.66
2023-04-16T12:25:19.844Z,3.56
2023-04-16T12:28:23.792Z,3.82
2023-04-16T12:31:31.918Z,3.51
2023-04-16T12:38:01.117Z,3.79
2023-04-16T12:41:05.010Z,3.74
2023-04-16T12:44:10.149Z,3.29
2023-04-16T12:47:14.516Z,2.72
2023-04-16T12:50:18.434Z,2.50
2023-04-16T12:53:22.728Z,2.61
2023-04-16T12:56:26.596Z,2.78
2023-04-16T12:59:30.539Z,2.61
2023-04-16T13:02:44.622Z,2.82
2023-04-16T13:05:52.996Z,2.93
2023-04-16T13:08:57.188Z,2.94
2023-04-16T13:12:00.946Z,3.06
2023-04-16T13:15:05.145Z,3.06
2023-04-16T13:18:16.071Z,3.65
2023-04-16T13:21:20.323Z,3.32
2023-04-16T13:24:24.322Z,3.46
2023-04-16T13:27:28.548Z,3.27
2023-04-16T13:30:32.534Z,3.50
2023-04-16T13:33:37.806Z,3.87
2023-04-16T13:36:42.838Z,3.73
2023-04-16T13:39:46.986Z,3.88
2023-04-16T13:42:50.742Z,4.19
2023-04-16T13:45:54.536Z,4.52
2023-04-16T13:48:58.293Z,4.32
2023-04-16T13:52:02.750Z,4.34
2023-04-16T13:55:06.442Z,4.35
2023-04-16T13:58:10.562Z,4.51
2023-04-16T14:01:14.746Z,4.97
2023-04-16T14:04:18.912Z,4.79
2023-04-16T14:07:23.635Z,5.15
2023-04-16T14:10:27.904Z,5.25
2023-04-16T14:13:36.959Z,4.72
2023-04-16T14:16:41.671Z,4.47
2023-04-16T14:19:47.098Z,4.83
2023-04-16T14:22:51.438Z,4.93
2023-04-16T14:25:55.513Z,4.37
2023-04-16T14:28:59.426Z,4.08
2023-04-16T14:32:03.734Z,4.52
2023-04-16T14:35:07.848Z,4.78
2023-04-16T14:38:11.989Z,4.73
2023-04-16T14:41:16.500Z,4.71
2023-04-16T14:44:21.750Z,5.50
2023-04-16T14:47:26.447Z,5.33
2023-04-16T14:50:30.747Z,5.84
2023-04-16T14:53:38.551Z,5.67
2023-04-16T14:56:42.602Z,6.24
2023-04-16T14:59:47.788Z,6.22
2023-04-16T15:02:52.283Z,6.06
2023-04-16T15:05:57.066Z,6.55
2023-04-16T15:09:01.239Z,6.45
2023-04-16T15:12:08.094Z,5.80
2023-04-16T15:15:12.019Z,5.88
2023-04-16T15:18:19.823Z,5.81
2023-04-16T15:21:28.656Z,5.36
2023-04-16T15:24:36.514Z,5.93
2023-04-16T15:27:44.900Z,5.88
2023-04-16T15:30:52.370Z,6.00
2023-04-16T15:34:01.634Z,5.72
2023-04-16T15:37:12.808Z,5.70
2023-04-16T15:40:27.716Z,5.83
2023-04-16T15:43:43.920Z,5.65
2023-04-16T15:50:08.573Z,6.21
2023-04-16T15:53:12.656Z,6.42
2023-04-16T15:56:20.315Z,6.36
2023-04-16T15:59:33.707Z,6.33
2023-04-16T16:02:38.253Z,6.65
2023-04-16T16:05:43.215Z,6.48
2023-04-16T16:22:53.496Z,6.23
2023-04-16T16:26:22.242Z,6.12
2023-04-16T16:32:58.713Z,6.40
2023-04-16T16:43:18.432Z,6.32
2023-04-16T16:54:20.585Z,6.06
2023-04-16T16:57:58.991Z,6.72
2023-04-16T17:01:37.289Z,6.68
2023-04-16T17:04:29.445Z,5.75
2023-04-16T17:14:38.378Z,5.29
2023-04-16T17:21:35.173Z,4.79
2023-04-16T17:24:40.504Z,4.96
2023-04-16T17:27:44.507Z,4.90
2023-04-16T17:30:48.286Z,5.07
2023-04-16T17:33:53.667Z,5.20
2023-04-16T17:37:04.473Z,5.00
2023-04-16T17:40:10.101Z,4.97
2023-04-16T17:43:17.473Z,5.39
2023-04-16T17:46:23.339Z,5.35
2023-04-16T17:49:27.537Z,5.53
2023-04-16T17:52:31.820Z,7.75
2023-04-16T17:55:35.867Z,5.89
2023-04-16T17:58:39.836Z,5.19
2023-04-16T18:01:47.297Z,5.93
2023-04-16T18:04:51.250Z,23.97
2023-04-16T18:07:56.913Z,7.62
2023-04-16T18:11:01.251Z,5.99
2023-04-16T18:14:07.231Z,5.75
2023-04-16T18:17:24.926Z,5.99
2023-04-16T18:20:37.396Z,5.09
2023-04-16T18:23:46.157Z,4.16
2023-04-16T18:26:53.595Z,4.20
2023-04-16T18:30:00.684Z,4.15
2023-04-16T18:36:12.079Z,3.48
2023-04-16T18:39:19.036Z,3.60
2023-04-16T18:42:23.607Z,4.02
2023-04-16T18:45:28.372Z,3.31
2023-04-16T18:48:33.728Z,3.58
2023-04-16T18:51:39.786Z,3.61
2023-04-16T18:54:45.029Z,4.23
2023-04-16T18:57:49.491Z,4.02
2023-04-16T19:00:55.060Z,4.42
2023-04-16T19:04:09.961Z,4.68
2023-04-16T19:07:14.316Z,4.68
2023-04-16T19:10:25.167Z,4.96
2023-04-16T19:13:29.223Z,5.03
2023-04-16T19:16:39.509Z,5.06
2023-04-16T19:19:44.774Z,5.44
2023-04-16T19:22:49.136Z,5.59
2023-04-16T19:25:54.997Z,5.54
2023-04-16T19:29:05.750Z,5.95
2023-04-16T19:32:12.242Z,5.70
2023-04-16T19:35:17.471Z,6.87
2023-04-16T19:38:21.816Z,6.64
2023-04-16T19:41:25.881Z,6.30
2023-04-16T19:44:31.370Z,6.88
2023-04-16T19:47:35.574Z,6.92
2023-04-16T19:50:39.817Z,7.31
2023-04-16T19:53:45.140Z,6.38
2023-04-16T19:56:50.716Z,6.87
2023-04-16T19:59:55.354Z,6.40
2023-04-16T20:03:00.572Z,6.66
2023-04-16T20:06:05.772Z,7.02
2023-04-16T20:09:12.093Z,6.66
2023-04-16T20:12:16.579Z,6.57
2023-04-16T20:15:20.787Z,7.39
2023-04-16T20:18:28.117Z,7.74
2023-04-16T20:21:32.632Z,6.75
2023-04-16T20:24:36.376Z,7.06
2023-04-16T20:27:42.337Z,7.20
2023-04-16T20:30:48.868Z,7.18
2023-04-16T20:33:52.999Z,6.67
2023-04-16T20:36:58.219Z,6.43
2023-04-16T20:40:02.830Z,7.02
2023-04-16T20:43:08.205Z,6.53
2023-04-16T20:46:12.284Z,6.24
2023-04-16T20:49:23.380Z,6.19
2023-04-16T20:52:28.413Z,6.27
2023-04-16T20:55:34.765Z,6.24
2023-04-16T20:58:38.821Z,5.99
2023-04-16T21:01:43.707Z,6.02
2023-04-16T21:04:48.066Z,5.62
2023-04-16T21:07:56.553Z,5.53
2023-04-16T21:11:01.827Z,5.84
2023-04-16T21:14:06.043Z,5.51
2023-04-16T21:17:10.007Z,5.71
2023-04-16T21:20:14.083Z,5.34
2023-04-16T21:23:18.069Z,5.37
2023-04-16T21:26:23.913Z,5.07
2023-04-16T21:29:28.191Z,4.99
2023-04-16T21:32:31.943Z,5.08
2023-04-16T21:35:35.984Z,4.66
2023-04-16T21:38:40.487Z,4.76
2023-04-16T21:41:44.469Z,4.53
2023-04-16T21:44:49.686Z,4.11
2023-04-16T21:47:53.939Z,4.26
2023-04-16T21:51:06.415Z,3.82
2023-04-16T21:54:14.654Z,3.81
2023-04-16T21:57:19.372Z,4.01
2023-04-16T22:00:23.535Z,3.47
2023-04-16T22:03:35.017Z,3.09
2023-04-16T22:06:43.065Z,3.24
2023-04-16T22:10:37.526Z,3.27
2023-04-16T22:14:19.009Z,3.43
2023-04-16T22:16:54.977Z,3.22
2023-04-16T22:20:01.414Z,3.14
2023-04-16T22:23:28.260Z,3.23
2023-04-16T22:26:34.830Z,3.30
2023-04-16T22:29:40.429Z,3.33
2023-04-16T22:33:07.118Z,3.22
2023-04-16T22:36:39.821Z,3.32
2023-04-16T22:42:59.410Z,3.62
2023-04-16T22:46:13.124Z,3.38
2023-04-16T22:49:37.239Z,3.95
2023-04-16T22:56:06.011Z,4.44
2023-04-16T22:59:21.982Z,4.29
2023-04-16T23:02:36.033Z,4.32
2023-04-16T23:09:15.522Z,4.65
2023-04-16T23:12:21.259Z,5.02
2023-04-16T23:15:29.613Z,4.99
2023-04-16T23:18:33.757Z,5.21
2023-04-16T23:21:42.142Z,4.94
2023-04-16T23:24:46.353Z,4.75
2023-04-16T23:27:51.474Z,4.45
2023-04-16T23:31:47.740Z,4.45
2023-04-16T23:38:02.100Z,4.28
2023-04-16T23:41:12.381Z,4.18
2023-04-16T23:44:17.651Z,3.99
2023-04-16T23:48:21.700Z,3.94
2023-04-16T23:50:54.474Z,4.16
2023-04-16T23:54:02.105Z,4.42
2023-04-16T23:57:06.619Z,4.51
